createdAt,value
2023-04-10T16:33:30.728Z,20.30
2023-04-10T16:33:42.620Z,20.30
2023-04-10T16:33:54.341Z,20.30
2023-04-10T16:34:06.104Z,20.20
2023-04-10T16:34:18.096Z,20.20
2023-04-10T16:34:29.857Z,20.20
2023-04-10T16:34:41.744Z,20.20
2023-04-10T16:34:53.637Z,20.20
2023-04-10T16:35:06.232Z,20.20
2023-04-10T16:35:22.435Z,20.20
2023-04-10T16:35:34.287Z,20.20
2023-04-10T16:35:47.798Z,20.20
2023-04-10T16:35:59.803Z,20.20
2023-04-10T16:36:11.664Z,20.20
2023-04-10T16:36:23.739Z,20.20
2023-04-10T16:36:41.866Z,20.20
2023-04-10T16:36:53.727Z,20.20
2023-04-10T16:37:05.742Z,20.20
2023-04-10T16:37:17.604Z,20.20
2023-04-10T16:37:29.457Z,20.20
2023-04-10T16:37:41.277Z,20.20
2023-04-10T16:37:53.789Z,20.20
2023-04-10T16:38:05.570Z,20.10
2023-04-10T16:38:17.341Z,20.20
2023-04-10T16:38:29.109Z,20.20
2023-04-10T16:38:40.969Z,20.10
2023-04-10T16:38:52.886Z,20.20
2023-04-10T16:39:05.855Z,20.10
2023-04-10T16:39:17.638Z,20.20
2023-04-10T16:39:29.447Z,20.20
2023-04-10T16:39:41.429Z,20.20
2023-04-10T16:39:53.262Z,20.20
2023-04-10T16:40:05.731Z,20.20
2023-04-10T16:40:17.925Z,20.20
2023-04-10T16:40:32.844Z,20.20
2023-04-10T16:40:44.937Z,20.20
2023-04-10T16:40:57.963Z,20.20
2023-04-10T16:41:10.292Z,20.20
2023-04-10T16:41:22.840Z,20.10
2023-04-10T16:41:34.887Z,20.10
2023-04-10T16:41:46.719Z,20.10
2023-04-10T16:41:59.229Z,20.10
2023-04-10T16:42:11.132Z,20.10
2023-04-10T16:42:23.037Z,20.10
2023-04-10T16:42:34.952Z,20.10
2023-04-10T16:42:46.796Z,20.10
2023-04-10T16:43:00.251Z,20.10
2023-04-10T16:43:12.786Z,20.10
2023-04-10T16:43:24.909Z,20.10
2023-04-10T16:43:36.902Z,20.10
2023-04-10T16:43:48.781Z,20.10
2023-04-10T16:44:00.955Z,20.10
2023-04-10T16:44:12.840Z,20.10
2023-04-10T16:44:24.706Z,20.10
2023-04-10T16:44:36.696Z,20.10
2023-04-10T16:44:48.642Z,20.10
2023-04-10T16:45:02.168Z,20.10
2023-04-10T16:45:15.129Z,20.10
2023-04-10T16:45:27.092Z,20.10
2023-04-10T16:45:39.112Z,20.10
2023-04-10T16:45:59.886Z,20.10
2023-04-10T16:46:11.771Z,20.10
2023-04-10T16:46:23.624Z,20.20
2023-04-10T16:46:36.250Z,20.10
2023-04-10T16:46:48.177Z,20.10
2023-04-10T16:47:00.075Z,20.20
2023-04-10T16:47:12.210Z,20.10
2023-04-10T16:47:24.264Z,20.20
2023-04-10T16:47:36.381Z,20.20
2023-04-10T16:47:48.213Z,20.20
2023-04-10T16:48:00.482Z,20.20
2023-04-10T16:48:12.874Z,20.10
2023-04-10T16:48:25.789Z,20.10
2023-04-10T16:48:38.475Z,20.10
2023-04-10T16:48:52.114Z,20.20
2023-04-10T16:49:04.094Z,20.20
2023-04-10T16:49:16.064Z,20.10
2023-04-10T16:49:28.108Z,20.20
2023-04-10T16:49:45.538Z,20.20
2023-04-10T16:49:57.399Z,20.20
2023-04-10T16:50:09.960Z,20.20
2023-04-10T16:50:21.999Z,20.20
2023-04-10T16:50:36.742Z,20.20
2023-04-10T16:50:48.670Z,20.20
2023-04-10T16:51:05.728Z,20.20
2023-04-10T16:51:17.891Z,20.20
2023-04-10T16:51:29.779Z,20.20
2023-04-10T16:51:41.770Z,20.20
2023-04-10T16:51:53.718Z,20.10
2023-04-10T16:52:05.621Z,20.20
2023-04-10T16:52:17.520Z,20.20
2023-04-10T16:52:29.593Z,20.10
2023-04-10T16:52:41.609Z,20.10
2023-04-10T16:52:53.598Z,20.10
2023-04-10T16:53:05.711Z,20.20
2023-04-10T16:53:18.038Z,20.10
2023-04-10T16:53:29.873Z,20.10
2023-04-10T16:53:41.708Z,20.10
2023-04-10T16:53:53.617Z,20.20
2023-04-10T16:54:06.163Z,20.10
2023-04-10T16:54:18.022Z,20.10
2023-04-10T16:54:29.824Z,20.10
2023-04-10T16:54:42.924Z,20.20
2023-04-10T16:54:54.722Z,20.20
2023-04-10T16:55:07.011Z,20.20
2023-04-10T16:55:18.985Z,20.20
2023-04-10T16:55:30.851Z,20.20
2023-04-10T16:55:42.726Z,20.10
2023-04-10T16:55:58.719Z,20.10
2023-04-10T16:56:10.716Z,20.10
2023-04-10T16:56:23.525Z,20.10
2023-04-10T16:56:35.452Z,20.10
2023-04-10T16:56:47.302Z,20.20
2023-04-10T16:56:59.265Z,20.20
2023-04-10T16:57:11.253Z,20.20
2023-04-10T16:57:23.101Z,20.20
2023-04-10T16:57:35.002Z,20.20
2023-04-10T16:57:46.919Z,20.20
2023-04-10T16:57:58.755Z,20.20
2023-04-10T16:58:10.830Z,20.20
2023-04-10T16:58:22.805Z,20.20
2023-04-10T16:58:36.102Z,20.20
2023-04-10T16:58:47.974Z,20.20
2023-04-10T16:58:59.860Z,20.20
2023-04-10T16:59:11.815Z,20.20
2023-04-10T16:59:23.807Z,20.20
2023-04-10T16:59:35.785Z,20.20
2023-04-10T16:59:47.743Z,20.20
2023-04-10T16:59:59.790Z,20.20
2023-04-10T17:00:12.064Z,20.20
2023-04-10T17:00:24.021Z,20.20
2023-04-10T17:00:35.911Z,20.20
2023-04-10T17:00:47.800Z,20.20
2023-04-10T17:00:59.780Z,20.20
2023-04-10T17:01:18.209Z,20.20
2023-04-10T17:01:31.028Z,20.20
2023-04-10T17:01:43.024Z,20.20
2023-04-10T17:01:54.865Z,20.20
2023-04-10T17:02:06.745Z,20.20
2023-04-10T17:02:18.626Z,20.20
2023-04-10T17:02:30.942Z,20.20
2023-04-10T17:02:43.190Z,20.20
2023-04-10T17:02:55.629Z,20.20
2023-04-10T17:03:07.711Z,20.20
2023-04-10T17:03:19.590Z,20.30
2023-04-10T17:03:31.415Z,20.30
2023-04-10T17:03:43.533Z,20.30
2023-04-10T17:03:55.522Z,20.30
2023-04-10T17:04:08.315Z,20.30
2023-04-10T17:04:20.540Z,20.30
2023-04-10T17:04:32.435Z,20.30
2023-04-10T17:04:44.242Z,20.30
2023-04-10T17:04:56.417Z,20.30
2023-04-10T17:05:08.650Z,20.30
2023-04-10T17:05:20.578Z,20.30
2023-04-10T17:05:36.187Z,20.30
2023-04-10T17:05:48.057Z,20.30
2023-04-10T17:05:59.929Z,20.30
2023-04-10T17:06:11.879Z,20.30
2023-04-10T17:06:23.740Z,20.30
2023-04-10T17:06:36.387Z,20.30
2023-04-10T17:06:48.571Z,20.30
2023-04-10T17:07:00.436Z,20.30
2023-04-10T17:07:12.360Z,20.30
2023-04-10T17:07:24.342Z,20.30
2023-04-10T17:07:36.267Z,20.30
2023-04-10T17:07:48.258Z,20.30
2023-04-10T17:08:00.020Z,20.30
2023-04-10T17:08:11.871Z,20.30
2023-04-10T17:08:23.711Z,20.30
2023-04-10T17:08:35.800Z,20.30
2023-04-10T17:08:47.811Z,20.30
2023-04-10T17:08:59.654Z,20.30
2023-04-10T17:09:11.764Z,20.30
2023-04-10T17:09:23.605Z,20.30
2023-04-10T17:09:35.898Z,20.30
2023-04-10T17:09:47.684Z,20.30
2023-04-10T17:09:59.740Z,20.30
2023-04-10T17:10:11.800Z,20.30
2023-04-10T17:10:24.026Z,20.30
2023-04-10T17:10:35.841Z,20.30
2023-04-10T17:10:47.671Z,20.30
2023-04-10T17:10:59.557Z,20.30
2023-04-10T17:11:14.372Z,20.30
2023-04-10T17:11:26.203Z,20.30
2023-04-10T17:11:38.156Z,20.30
2023-04-10T17:11:50.134Z,20.30
2023-04-10T17:12:02.161Z,20.30
2023-04-10T17:12:14.105Z,20.30
2023-04-10T17:12:26.174Z,20.30
2023-04-10T17:12:39.076Z,20.30
2023-04-10T17:12:50.908Z,20.30
2023-04-10T17:13:02.814Z,20.30
2023-04-10T17:13:14.734Z,20.30
2023-04-10T17:13:26.625Z,20.30
2023-04-10T17:13:39.574Z,20.30
2023-04-10T17:13:51.483Z,20.30
2023-04-10T17:14:03.977Z,20.30
2023-04-10T17:14:16.361Z,20.30
2023-04-10T17:14:28.438Z,20.30
2023-04-10T17:14:40.466Z,20.30
2023-04-10T17:14:52.296Z,20.30
2023-04-10T17:15:04.408Z,20.30
2023-04-10T17:15:16.295Z,20.30
2023-04-10T17:15:28.256Z,20.40
2023-04-10T17:15:40.187Z,20.30
2023-04-10T17:15:51.973Z,20.30
2023-04-10T17:16:05.096Z,20.30
2023-04-10T17:16:16.898Z,20.40
2023-04-10T17:16:28.844Z,20.30
2023-04-10T17:16:41.130Z,20.30
2023-04-10T17:16:53.063Z,20.30
2023-04-10T17:17:05.108Z,20.30
2023-04-10T17:17:16.983Z,20.30
2023-04-10T17:17:28.989Z,20.30
2023-04-10T17:17:41.090Z,20.30
2023-04-10T17:17:54.169Z,20.30
2023-04-10T17:18:06.241Z,20.30
2023-04-10T17:18:20.091Z,20.30
2023-04-10T17:18:32.386Z,20.30
2023-04-10T17:18:44.326Z,20.30
2023-04-10T17:18:56.709Z,20.30
2023-04-10T17:19:08.951Z,20.30
2023-04-10T17:19:21.002Z,20.30
2023-04-10T17:19:32.945Z,20.30
2023-04-10T17:19:44.827Z,20.30
2023-04-10T17:19:56.763Z,20.20
2023-04-10T17:20:09.950Z,20.20
2023-04-10T17:20:21.835Z,20.20
2023-04-10T17:20:37.087Z,20.20
2023-04-10T17:20:49.085Z,20.20
2023-04-10T17:21:01.011Z,20.20
2023-04-10T17:21:13.344Z,20.10
2023-04-10T17:21:27.194Z,20.10
2023-04-10T17:21:39.021Z,20.10
2023-04-10T17:21:52.367Z,20.10
2023-04-10T17:22:04.169Z,20.10
2023-04-10T17:22:16.413Z,20.10
2023-04-10T17:22:28.233Z,20.10
2023-04-10T17:22:40.818Z,20.10
2023-04-10T17:22:52.686Z,20.10
2023-04-10T17:23:06.724Z,20.10
2023-04-10T17:23:18.674Z,20.10
2023-04-10T17:23:30.605Z,20.10
2023-04-10T17:23:42.545Z,20.10
2023-04-10T17:23:54.532Z,20.10
2023-04-10T17:24:06.529Z,20.10
2023-04-10T17:24:18.556Z,20.10
2023-04-10T17:24:31.604Z,20.10
2023-04-10T17:24:44.191Z,20.10
2023-04-10T17:24:56.065Z,20.10
2023-04-10T17:25:08.773Z,20.10
2023-04-10T17:25:20.696Z,20.10
2023-04-10T17:25:32.721Z,20.10
2023-04-10T17:25:44.944Z,20.00
2023-04-10T17:25:56.941Z,20.00
2023-04-10T17:26:12.887Z,20.00
2023-04-10T17:26:24.741Z,20.00
2023-04-10T17:26:36.626Z,20.00
2023-04-10T17:26:49.500Z,20.00
2023-04-10T17:27:02.042Z,20.00
2023-04-10T17:27:13.994Z,20.00
2023-04-10T17:27:25.768Z,20.00
2023-04-10T17:27:40.321Z,19.90
2023-04-10T17:27:52.642Z,20.00
2023-04-10T17:28:04.501Z,20.00
2023-04-10T17:28:16.350Z,20.00
2023-04-10T17:28:28.073Z,20.00
2023-04-10T17:28:39.925Z,20.00
2023-04-10T17:28:52.271Z,20.00
2023-04-10T17:29:04.508Z,20.00
2023-04-10T17:29:16.317Z,20.00
2023-04-10T17:29:28.134Z,20.00
2023-04-10T17:29:40.319Z,20.00
2023-04-10T17:29:52.075Z,20.00
2023-04-10T17:30:04.158Z,20.00
2023-04-10T17:30:16.008Z,20.00
2023-04-10T17:30:28.017Z,20.00
2023-04-10T17:30:39.826Z,20.00
2023-04-10T17:30:51.634Z,20.00
2023-04-10T17:31:03.606Z,20.00
2023-04-10T17:31:16.015Z,20.00
2023-04-10T17:31:28.461Z,20.00
2023-04-10T17:31:40.461Z,20.00
2023-04-10T17:31:52.347Z,20.00
2023-04-10T17:32:04.356Z,20.00
2023-04-10T17:32:16.258Z,20.00
2023-04-10T17:32:28.238Z,20.00
2023-04-10T17:32:41.832Z,20.00
2023-04-10T17:32:53.877Z,20.00
2023-04-10T17:33:06.542Z,20.00
2023-04-10T17:33:18.362Z,20.00
2023-04-10T17:33:30.241Z,20.00
2023-04-10T17:33:42.387Z,20.00
2023-04-10T17:33:54.363Z,19.90
2023-04-10T17:34:06.317Z,19.90
2023-04-10T17:34:18.193Z,19.90
2023-04-10T17:34:30.081Z,19.90
2023-04-10T17:34:42.018Z,19.90
2023-04-10T17:34:53.834Z,19.90
2023-04-10T17:35:06.174Z,19.90
2023-04-10T17:35:18.158Z,19.90
2023-04-10T17:35:30.013Z,19.90
2023-04-10T17:35:42.316Z,19.90
2023-04-10T17:35:55.552Z,19.80
2023-04-10T17:36:08.311Z,19.90
2023-04-10T17:36:20.894Z,19.80
2023-04-10T17:36:32.764Z,19.80
2023-04-10T17:36:44.780Z,19.80
2023-04-10T17:36:56.632Z,19.80
2023-04-10T17:37:08.527Z,19.80
2023-04-10T17:37:20.383Z,19.80
2023-04-10T17:37:32.160Z,19.80
2023-04-10T17:37:44.043Z,19.80
2023-04-10T17:37:55.944Z,19.80
2023-04-10T17:38:07.817Z,19.80
2023-04-10T17:38:19.722Z,19.80
2023-04-10T17:38:31.658Z,19.80
2023-04-10T17:38:46.435Z,19.80
2023-04-10T17:38:58.799Z,19.80
2023-04-10T17:39:11.004Z,19.70
2023-04-10T17:39:23.605Z,19.70
2023-04-10T17:39:35.378Z,19.70
2023-04-10T17:39:47.256Z,19.70
2023-04-10T17:39:59.381Z,19.70
2023-04-10T17:40:12.234Z,19.70
2023-04-10T17:40:25.119Z,19.70
2023-04-10T17:40:37.200Z,19.70
2023-04-10T17:40:49.012Z,19.70
2023-04-10T17:41:01.055Z,19.70
2023-04-10T17:41:14.215Z,19.70
2023-04-10T17:41:26.196Z,19.70
2023-04-10T17:41:38.043Z,19.70
2023-04-10T17:41:49.907Z,19.70
2023-04-10T17:42:01.726Z,19.70
2023-04-10T17:42:13.617Z,19.70
2023-04-10T17:42:27.363Z,19.70
2023-04-10T17:42:39.307Z,19.70
2023-04-10T17:42:51.307Z,19.70
2023-04-10T17:43:03.188Z,19.70
2023-04-10T17:43:15.028Z,19.70
2023-04-10T17:43:26.908Z,19.70
2023-04-10T17:43:38.890Z,19.70
2023-04-10T17:43:50.900Z,19.70
2023-04-10T17:44:03.260Z,19.70
2023-04-10T17:44:15.253Z,19.70
2023-04-10T17:44:28.333Z,19.70
2023-04-10T17:44:40.343Z,19.70
2023-04-10T17:44:53.160Z,19.70
2023-04-10T17:45:05.515Z,19.70
2023-04-10T17:45:17.387Z,19.70
2023-04-10T17:45:29.272Z,19.60
2023-04-10T17:45:41.312Z,19.70
2023-04-10T17:45:53.221Z,19.70
2023-04-10T17:46:05.448Z,19.70
2023-04-10T17:46:17.359Z,19.70
2023-04-10T17:46:29.217Z,19.70
2023-04-10T17:46:41.068Z,19.70
2023-04-10T17:46:54.389Z,19.60
2023-04-10T17:47:06.347Z,19.60
2023-04-10T17:47:18.231Z,19.60
2023-04-10T17:47:30.263Z,19.60
2023-04-10T17:47:42.111Z,19.70
2023-04-10T17:47:54.356Z,19.60
2023-04-10T17:48:06.469Z,19.60
2023-04-10T17:48:18.667Z,19.60
2023-04-10T17:48:31.052Z,19.60
2023-04-10T17:48:43.701Z,19.60
2023-04-10T17:49:01.361Z,19.60
2023-04-10T17:49:13.510Z,19.60
2023-04-10T17:49:25.552Z,19.50
2023-04-10T17:49:39.735Z,19.50
2023-04-10T17:49:51.617Z,19.50
2023-04-10T17:50:04.411Z,19.50
2023-04-10T17:50:16.464Z,19.50
2023-04-10T17:50:28.819Z,19.50
2023-04-10T17:50:40.782Z,19.50
2023-04-10T17:50:52.804Z,19.50
2023-04-10T17:51:07.235Z,19.50
2023-04-10T17:51:19.099Z,19.50
2023-04-10T17:51:31.687Z,19.50
2023-04-10T17:51:43.610Z,19.50
2023-04-10T17:51:55.552Z,19.50
2023-04-10T17:52:07.381Z,19.40
2023-04-10T17:52:19.340Z,19.50
2023-04-10T17:52:31.204Z,19.40
2023-04-10T17:52:44.503Z,19.40
2023-04-10T17:52:56.315Z,19.40
2023-04-10T17:53:08.106Z,19.40
2023-04-10T17:53:19.931Z,19.40
2023-04-10T17:53:31.774Z,19.40
2023-04-10T17:53:43.957Z,19.40
2023-04-10T17:53:55.806Z,19.40
2023-04-10T17:54:08.121Z,19.40
2023-04-10T17:54:20.152Z,19.40
2023-04-10T17:54:32.047Z,19.40
2023-04-10T17:54:43.897Z,19.40
2023-04-10T17:54:55.871Z,19.40
2023-04-10T17:55:08.252Z,19.40
2023-04-10T17:55:20.756Z,19.40
2023-04-10T17:55:38.255Z,19.40
2023-04-10T17:55:50.201Z,19.40
2023-04-10T17:56:03.160Z,19.40
2023-04-10T17:56:19.667Z,19.40
2023-04-10T17:56:31.860Z,19.40
2023-04-10T17:56:44.240Z,19.40
2023-04-10T17:56:56.882Z,19.40
2023-04-10T17:57:08.781Z,19.40
2023-04-10T17:57:20.669Z,19.30
2023-04-10T17:57:32.514Z,19.40
2023-04-10T17:57:44.398Z,19.40
2023-04-10T17:57:59.188Z,19.30
2023-04-10T17:58:11.134Z,19.30
2023-04-10T17:58:22.952Z,19.30
2023-04-10T17:58:35.122Z,19.30
2023-04-10T17:58:47.039Z,19.30
2023-04-10T17:59:00.548Z,19.30
2023-04-10T17:59:12.414Z,19.30
2023-04-10T17:59:24.233Z,19.30
2023-04-10T17:59:36.015Z,19.20
2023-04-10T17:59:48.135Z,19.20
2023-04-10T18:00:00.021Z,19.20
2023-04-10T18:00:16.154Z,19.30
2023-04-10T18:00:28.420Z,19.20
2023-04-10T18:00:43.088Z,19.30
2023-04-10T18:00:54.915Z,19.20
2023-04-10T18:01:07.503Z,19.20
2023-04-10T18:01:31.748Z,19.20
2023-04-10T18:01:43.795Z,19.20
2023-04-10T18:01:55.793Z,19.20
2023-04-10T18:02:07.646Z,19.20
2023-04-10T18:02:19.660Z,19.20
2023-04-10T18:02:31.687Z,19.10
2023-04-10T18:02:43.870Z,19.10
2023-04-10T18:03:01.075Z,19.10
2023-04-10T18:03:13.271Z,19.10
2023-04-10T18:03:25.260Z,19.10
2023-04-10T18:03:37.338Z,19.10
2023-04-10T18:03:49.827Z,19.00
2023-04-10T18:04:02.978Z,19.00
2023-04-10T18:04:15.138Z,19.00
2023-04-10T18:04:27.132Z,19.00
2023-04-10T18:04:39.124Z,19.00
2023-04-10T18:04:50.941Z,19.10
2023-04-10T18:05:03.688Z,19.00
2023-04-10T18:05:15.887Z,19.00
2023-04-10T18:05:28.884Z,19.00
2023-04-10T18:05:40.760Z,19.00
2023-04-10T18:05:53.042Z,19.00
2023-04-10T18:06:08.155Z,19.00
2023-04-10T18:06:20.030Z,19.00
2023-04-10T18:06:32.405Z,19.00
2023-04-10T18:06:44.258Z,19.00
2023-04-10T18:06:56.129Z,19.00
2023-04-10T18:07:07.874Z,19.00
2023-04-10T18:07:19.798Z,19.00
2023-04-10T18:07:31.589Z,18.90
2023-04-10T18:07:43.641Z,18.90
2023-04-10T18:07:55.577Z,18.90
2023-04-10T18:08:08.648Z,18.90
2023-04-10T18:08:20.646Z,18.90
2023-04-10T18:08:32.442Z,18.90
2023-04-10T18:08:44.264Z,18.90
2023-04-10T18:08:56.801Z,18.90
2023-04-10T18:09:09.006Z,18.90
2023-04-10T18:09:21.044Z,18.90
2023-04-10T18:09:32.807Z,18.90
2023-04-10T18:09:45.546Z,18.90
2023-04-10T18:09:57.398Z,18.90
2023-04-10T18:10:11.157Z,18.80
2023-04-10T18:10:23.428Z,18.80
2023-04-10T18:10:35.515Z,18.80
2023-04-10T18:10:47.390Z,18.80
2023-04-10T18:10:59.160Z,18.80
2023-04-10T18:11:11.407Z,18.80
2023-04-10T18:11:24.272Z,18.80
2023-04-10T18:11:36.196Z,18.80
2023-04-10T18:11:48.605Z,18.80
2023-04-10T18:12:01.610Z,18.80
2023-04-10T18:12:13.464Z,18.80
2023-04-10T18:12:25.346Z,18.80
2023-04-10T18:12:37.270Z,18.80
2023-04-10T18:12:49.201Z,18.80
2023-04-10T18:13:01.053Z,18.80
2023-04-10T18:13:12.911Z,18.80
2023-04-10T18:13:24.843Z,18.80
2023-04-10T18:13:36.745Z,18.80
2023-04-10T18:13:48.637Z,18.80
2023-04-10T18:14:00.680Z,18.80
2023-04-10T18:14:12.531Z,18.80
2023-04-10T18:14:24.462Z,18.80
2023-04-10T18:14:37.197Z,18.80
2023-04-10T18:14:49.215Z,18.90
2023-04-10T18:15:01.105Z,18.80
2023-04-10T18:15:14.619Z,18.80
2023-04-10T18:15:26.819Z,18.80
2023-04-10T18:15:38.817Z,18.80
2023-04-10T18:15:50.790Z,18.80
2023-04-10T18:16:02.665Z,18.80
2023-04-10T18:16:14.687Z,18.80
2023-04-10T18:16:26.659Z,18.90
2023-04-10T18:16:38.711Z,18.80
2023-04-10T18:16:50.727Z,18.80
2023-04-10T18:17:02.624Z,18.80
2023-04-10T18:17:14.852Z,18.80
2023-04-10T18:17:27.050Z,18.80
2023-04-10T18:17:39.553Z,18.80
2023-04-10T18:17:51.477Z,18.80
2023-04-10T18:18:03.698Z,18.80
2023-04-10T18:18:15.675Z,18.80
2023-04-10T18:18:28.770Z,18.80
2023-04-10T18:18:42.391Z,18.80
2023-04-10T18:18:54.569Z,18.80
2023-04-10T18:19:07.192Z,18.80
2023-04-10T18:19:21.743Z,18.80
2023-04-10T18:19:33.608Z,18.80
2023-04-10T18:19:45.567Z,18.80
2023-04-10T18:19:57.725Z,18.80
2023-04-10T18:20:10.371Z,18.80
2023-04-10T18:20:22.522Z,18.80
2023-04-10T18:20:35.400Z,18.80
2023-04-10T18:20:47.260Z,18.80
2023-04-10T18:21:02.904Z,18.80
2023-04-10T18:21:14.890Z,18.80
2023-04-10T18:21:27.250Z,18.80
2023-04-10T18:21:41.985Z,18.80
2023-04-10T18:21:53.983Z,18.80
2023-04-10T18:22:06.047Z,18.80
2023-04-10T18:22:20.824Z,18.80
2023-04-10T18:22:32.904Z,18.80
2023-04-10T18:22:47.008Z,18.80
2023-04-10T18:22:58.984Z,18.80
2023-04-10T18:23:10.873Z,18.80
2023-04-10T18:23:24.274Z,18.80
2023-04-10T18:23:36.220Z,18.80
2023-04-10T18:23:47.959Z,18.80
2023-04-10T18:23:59.722Z,18.80
2023-04-10T18:24:12.127Z,18.80
2023-04-10T18:24:23.953Z,18.80
2023-04-10T18:24:35.786Z,18.80
2023-04-10T18:24:50.661Z,18.80
2023-04-10T18:25:02.428Z,18.70
2023-04-10T18:25:15.280Z,18.70
2023-04-10T18:25:27.126Z,18.70
2023-04-10T18:25:39.039Z,18.70
2023-04-10T18:25:54.402Z,18.80
2023-04-10T18:26:06.482Z,18.70
2023-04-10T18:26:20.897Z,18.80
2023-04-10T18:26:34.879Z,18.70
2023-04-10T18:26:48.315Z,18.70
2023-04-10T18:27:00.835Z,18.70
2023-04-10T18:27:12.788Z,18.70
2023-04-10T18:27:24.569Z,18.70
2023-04-10T18:27:36.655Z,18.70
2023-04-10T18:28:04.483Z,18.70
2023-04-10T18:28:23.954Z,18.70
2023-04-10T18:28:36.459Z,18.70
2023-04-10T18:28:48.295Z,18.70
2023-04-10T18:29:00.756Z,18.70
2023-04-10T18:29:12.800Z,18.70
2023-04-10T18:29:26.442Z,18.70
2023-04-10T18:29:38.330Z,18.70
2023-04-10T18:29:50.221Z,18.60
2023-04-10T18:30:02.315Z,18.60
2023-04-10T18:30:14.435Z,18.70
2023-04-10T18:30:26.351Z,18.70
2023-04-10T18:30:39.100Z,18.60
2023-04-10T18:30:53.986Z,18.60
2023-04-10T18:31:06.510Z,18.60
2023-04-10T18:31:19.208Z,18.70
2023-04-10T18:31:31.232Z,18.60
2023-04-10T18:31:42.979Z,18.70
2023-04-10T18:31:55.084Z,18.60
2023-04-10T18:32:07.779Z,18.60
2023-04-10T18:32:19.677Z,18.60
2023-04-10T18:32:31.601Z,18.60
2023-04-10T18:32:46.329Z,18.60
2023-04-10T18:32:58.236Z,18.60
2023-04-10T18:33:11.486Z,18.60
2023-04-10T18:33:24.352Z,18.60
2023-04-10T18:33:36.166Z,18.60
2023-04-10T18:34:03.609Z,18.60
2023-04-10T18:34:18.839Z,18.60
2023-04-10T18:34:30.711Z,18.60
2023-04-10T18:34:42.490Z,18.50
2023-04-10T18:34:54.314Z,18.50
2023-04-10T18:35:06.514Z,18.50
2023-04-10T18:35:19.027Z,18.50
2023-04-10T18:35:31.442Z,18.50
2023-04-10T18:35:43.522Z,18.50
2023-04-10T18:35:59.088Z,18.50
2023-04-10T18:36:11.109Z,18.50
2023-04-10T18:36:24.191Z,18.50
2023-04-10T18:36:36.022Z,18.50
2023-04-10T18:36:47.850Z,18.50
2023-04-10T18:36:59.870Z,18.50
2023-04-10T18:37:11.687Z,18.50
2023-04-10T18:37:23.516Z,18.50
2023-04-10T18:37:35.418Z,18.50
2023-04-10T18:37:47.340Z,18.40
2023-04-10T18:37:59.147Z,18.40
2023-04-10T18:38:11.022Z,18.50
2023-04-10T18:38:23.748Z,18.40
2023-04-10T18:38:35.616Z,18.40
2023-04-10T18:38:47.883Z,18.40
2023-04-10T18:38:59.634Z,18.40
2023-04-10T18:39:11.426Z,18.40
2023-04-10T18:39:23.334Z,18.40
2023-04-10T18:39:38.160Z,18.40
2023-04-10T18:39:49.994Z,18.40
2023-04-10T18:40:09.944Z,18.50
2023-04-10T18:40:27.593Z,18.50
2023-04-10T18:40:39.517Z,18.40
2023-04-10T18:40:54.764Z,18.40
2023-04-10T18:41:06.691Z,18.40
2023-04-10T18:41:18.794Z,18.40
2023-04-10T18:41:30.742Z,18.30
2023-04-10T18:41:42.764Z,18.30
2023-04-10T18:41:54.555Z,18.30
2023-04-10T18:42:08.326Z,18.30
2023-04-10T18:42:20.118Z,18.30
2023-04-10T18:42:31.943Z,18.30
2023-04-10T18:42:43.730Z,18.30
2023-04-10T18:42:55.649Z,18.30
2023-04-10T18:43:07.421Z,18.30
2023-04-10T18:43:19.372Z,18.40
2023-04-10T18:43:31.310Z,18.30
2023-04-10T18:43:48.683Z,18.40
2023-04-10T18:44:06.180Z,18.30
2023-04-10T18:44:18.090Z,18.30
2023-04-10T18:44:30.594Z,18.30
2023-04-10T18:44:43.197Z,18.40
2023-04-10T18:44:55.207Z,18.30
2023-04-10T18:45:07.511Z,18.40
2023-04-10T18:45:20.474Z,18.40
2023-04-10T18:45:35.556Z,18.30
2023-04-10T18:45:47.446Z,18.40
2023-04-10T18:45:59.888Z,18.30
2023-04-10T18:46:11.728Z,18.30
2023-04-10T18:46:27.938Z,18.30
2023-04-10T18:46:42.757Z,18.40
2023-04-10T18:47:03.904Z,18.30
2023-04-10T18:47:16.375Z,18.30
2023-04-10T18:47:28.239Z,18.30
2023-04-10T18:47:40.114Z,18.30
2023-04-10T18:47:51.941Z,18.20
2023-04-10T18:48:03.907Z,18.30
2023-04-10T18:48:15.784Z,18.30
2023-04-10T18:48:27.585Z,18.30
2023-04-10T18:48:42.911Z,18.30
2023-04-10T18:48:56.041Z,18.30
2023-04-10T18:49:08.189Z,18.20
2023-04-10T18:49:19.971Z,18.20
2023-04-10T18:49:31.857Z,18.20
2023-04-10T18:49:43.661Z,18.20
2023-04-10T18:49:55.563Z,18.20
2023-04-10T18:50:10.410Z,18.20
2023-04-10T18:50:22.227Z,18.20
2023-04-10T18:50:36.916Z,18.20
2023-04-10T18:50:52.040Z,18.20
2023-04-10T18:51:04.271Z,18.20
2023-04-10T18:51:16.215Z,18.20
2023-04-10T18:51:28.670Z,18.20
2023-04-10T18:51:40.912Z,18.20
2023-04-10T18:51:53.142Z,18.20
2023-04-10T18:52:05.198Z,18.20
2023-04-10T18:52:16.956Z,18.20
2023-04-10T18:52:28.830Z,18.20
2023-04-10T18:52:40.632Z,18.10
2023-04-10T18:52:52.543Z,18.10
2023-04-10T18:53:04.413Z,18.10
2023-04-10T18:53:16.214Z,18.20
2023-04-10T18:53:28.329Z,18.20
2023-04-10T18:53:41.412Z,18.10
2023-04-10T18:53:53.534Z,18.20
2023-04-10T18:54:05.895Z,18.10
2023-04-10T18:54:17.644Z,18.20
2023-04-10T18:54:29.900Z,18.20
2023-04-10T18:54:42.010Z,18.10
2023-04-10T18:54:53.901Z,18.10
2023-04-10T18:55:06.289Z,18.10
2023-04-10T18:55:18.243Z,18.20
2023-04-10T18:55:30.094Z,18.20
2023-04-10T18:55:48.292Z,18.10
2023-04-10T18:56:00.103Z,18.20
2023-04-10T18:56:12.003Z,18.20
2023-04-10T18:56:23.782Z,18.20
2023-04-10T18:56:35.968Z,18.20
2023-04-10T18:56:47.828Z,18.10
2023-04-10T18:56:59.668Z,18.20
2023-04-10T18:57:12.079Z,18.10
2023-04-10T18:57:23.940Z,18.20
2023-04-10T18:57:35.988Z,18.20
2023-04-10T18:57:47.803Z,18.20
2023-04-10T18:57:59.608Z,18.20
2023-04-10T18:58:11.382Z,18.20
2023-04-10T18:58:23.231Z,18.20
2023-04-10T18:58:35.332Z,18.20
2023-04-10T18:58:49.674Z,18.20
2023-04-10T18:59:02.036Z,18.20
2023-04-10T18:59:13.791Z,18.20
2023-04-10T18:59:26.948Z,18.20
2023-04-10T18:59:38.799Z,18.20
2023-04-10T18:59:50.696Z,18.20
2023-04-10T19:00:04.555Z,18.20
2023-04-10T19:00:17.014Z,18.20
2023-04-10T19:00:29.302Z,18.20
2023-04-10T19:00:41.076Z,18.20
2023-04-10T19:00:53.534Z,18.20
2023-04-10T19:01:06.262Z,18.20
2023-04-10T19:01:18.183Z,18.20
2023-04-10T19:01:30.076Z,18.20
2023-04-10T19:01:42.056Z,18.20
2023-04-10T19:01:54.153Z,18.20
2023-04-10T19:02:06.412Z,18.20
2023-04-10T19:02:18.353Z,18.20
2023-04-10T19:02:30.238Z,18.10
2023-04-10T19:02:42.286Z,18.20
2023-04-10T19:02:55.446Z,18.10
2023-04-10T19:03:10.307Z,18.10
2023-04-10T19:03:22.363Z,18.20
2023-04-10T19:03:34.464Z,18.20
2023-04-10T19:03:49.128Z,18.20
2023-04-10T19:04:02.896Z,18.10
2023-04-10T19:04:15.353Z,18.10
2023-04-10T19:04:27.239Z,18.20
2023-04-10T19:04:41.292Z,18.20
2023-04-10T19:04:53.701Z,18.20
2023-04-10T19:05:06.043Z,18.20
2023-04-10T19:05:18.005Z,18.20
2023-04-10T19:05:34.218Z,18.20
2023-04-10T19:05:46.117Z,18.20
2023-04-10T19:05:58.091Z,18.20
2023-04-10T19:06:10.271Z,18.20
2023-04-10T19:06:25.512Z,18.20
2023-04-10T19:06:39.701Z,18.20
2023-04-10T19:06:51.578Z,18.20
2023-04-10T19:07:03.838Z,18.20
2023-04-10T19:07:15.629Z,18.20
2023-04-10T19:07:27.402Z,18.20
2023-04-10T19:07:39.284Z,18.20
2023-04-10T19:08:03.049Z,18.20
2023-04-10T19:08:17.206Z,18.20
2023-04-10T19:08:29.046Z,18.20
2023-04-10T19:08:40.820Z,18.20
2023-04-10T19:08:52.654Z,18.20
2023-04-10T19:09:04.560Z,18.20
2023-04-10T19:09:16.547Z,18.20
2023-04-10T19:09:28.421Z,18.20
2023-04-10T19:09:40.312Z,18.20
2023-04-10T19:09:52.164Z,18.20
2023-04-10T19:10:04.185Z,18.20
2023-04-10T19:10:16.069Z,18.20
2023-04-10T19:10:27.867Z,18.20
2023-04-10T19:10:40.257Z,18.20
2023-04-10T19:10:51.972Z,18.20
2023-04-10T19:11:07.350Z,18.20
2023-04-10T19:11:19.398Z,18.20
2023-04-10T19:11:32.038Z,18.20
2023-04-10T19:11:43.869Z,18.20
2023-04-10T19:11:56.282Z,18.10
2023-04-10T19:12:08.070Z,18.10
2023-04-10T19:12:19.903Z,18.20
2023-04-10T19:12:31.686Z,18.10
2023-04-10T19:12:43.986Z,18.10
2023-04-10T19:12:57.277Z,18.10
2023-04-10T19:13:09.855Z,18.20
2023-04-10T19:13:22.856Z,18.10
2023-04-10T19:13:34.686Z,18.10
2023-04-10T19:13:46.481Z,18.10
2023-04-10T19:13:58.445Z,18.00
2023-04-10T19:14:10.485Z,18.10
2023-04-10T19:14:22.326Z,18.00